Terminal Aerodrome Forecast
Issued by NWS Cleveland, OH

Home | Current Version | Previous Version | Graphics & Text | Print | Product List | Glossary On
Versions: 1 2 3 4 5 6 7 8 9 10 11 12 13 14 15 16 17 18
449
FTUS41 KCLE 200544
TAFYNG
TAF
KYNG 200544Z 2006/2106 05009KT P6SM VCSH SCT018 BKN040
      TEMPO 2006/2010 BKN018
     FM201000 06009KT 6SM BR BKN020
     FM201700 09009KT P6SM BKN035=

USA.gov is the U.S. government's official web portal to all federal, state and local government web resources and services.